createdAt,value
2023-04-07T00:06:59.956Z,7
2023-04-07T00:16:59.927Z,7
2023-04-07T00:26:59.739Z,7
2023-04-07T00:36:59.664Z,7
2023-04-07T00:46:59.823Z,7
2023-04-07T00:56:59.590Z,7.1
2023-04-07T01:06:59.739Z,7.1
2023-04-07T01:16:59.542Z,7.1
2023-04-07T01:26:59.705Z,7.1
2023-04-07T01:36:59.531Z,7.1
2023-04-07T01:46:59.459Z,7.1
2023-04-07T01:56:59.551Z,7.1
2023-04-07T02:06:59.567Z,7.2
2023-04-07T02:16:59.393Z,7.2
2023-04-07T02:26:59.351Z,7.2
2023-04-07T02:36:59.322Z,7.3
2023-04-07T02:46:59.356Z,7.3
2023-04-07T02:56:59.415Z,7.3
2023-04-07T03:06:59.442Z,7.3
2023-04-07T03:16:59.420Z,7.3
2023-04-07T03:26:59.312Z,7.4
2023-04-07T03:36:59.356Z,7.4
2023-04-07T03:46:59.244Z,7.4
2023-04-07T03:56:59.123Z,7.5
2023-04-07T04:06:59.079Z,7.6
2023-04-07T04:16:59.229Z,7.6
2023-04-07T04:26:59.032Z,7.7
2023-04-07T04:36:59.131Z,7.7
2023-04-07T04:46:59.089Z,7.7
2023-04-07T04:56:59.081Z,7.7
2023-04-07T05:06:59.018Z,7.6
2023-04-07T05:16:59.086Z,7.6
2023-04-07T05:26:58.966Z,7.6
2023-04-07T05:36:58.814Z,7.6
2023-04-07T05:46:58.808Z,7.5
2023-04-07T05:56:58.916Z,7.5
2023-04-07T06:06:58.893Z,7.5
2023-04-07T06:16:58.944Z,7.4
2023-04-07T06:26:58.682Z,7.4
2023-04-07T06:36:58.677Z,7.3
2023-04-07T06:46:59.040Z,7.3
2023-04-07T06:56:58.809Z,7.3
2023-04-07T07:06:58.751Z,7.3
2023-04-07T07:16:58.549Z,7.3
2023-04-07T07:26:58.707Z,7.3
2023-04-07T07:36:58.647Z,7.3
2023-04-07T07:46:58.657Z,7.3
2023-04-07T07:56:58.594Z,7.4
2023-04-07T08:06:58.589Z,7.5
2023-04-07T08:16:58.555Z,7.5
2023-04-07T08:26:58.508Z,7.6
2023-04-07T08:36:58.327Z,7.6
2023-04-07T08:46:58.350Z,7.6
2023-04-07T08:56:58.257Z,7.7
2023-04-07T09:06:58.258Z,7.7
2023-04-07T09:16:58.262Z,7.9
2023-04-07T09:26:58.257Z,8
2023-04-07T09:36:58.206Z,7.9
2023-04-07T09:46:58.127Z,8
2023-04-07T09:56:58.135Z,8.1
2023-04-07T10:06:58.077Z,8.2
2023-04-07T10:16:58.042Z,8.3
2023-04-07T10:26:58.179Z,8.4
2023-04-07T10:36:58.153Z,8.4
2023-04-07T10:46:57.966Z,8.4
2023-04-07T10:56:57.939Z,8.2
2023-04-07T11:06:57.891Z,8.1
2023-04-07T11:16:57.871Z,8
2023-04-07T11:26:57.839Z,8.2
2023-04-07T11:36:57.820Z,8.3
2023-04-07T11:46:57.787Z,8.4
2023-04-07T11:56:57.754Z,8.6
2023-04-07T12:06:57.780Z,8.4
2023-04-07T12:16:57.706Z,8.4
2023-04-07T12:26:57.688Z,8.5
2023-04-07T12:36:57.667Z,8.4
2023-04-07T12:46:57.649Z,8.6
2023-04-07T12:56:57.600Z,8.9
2023-04-07T13:06:57.561Z,9.1
2023-04-07T13:16:57.535Z,9.2
2023-04-07T13:26:57.495Z,8.9
2023-04-07T13:36:57.472Z,9.2
2023-04-07T13:46:57.446Z,9.2
2023-04-07T13:56:57.416Z,9.2
2023-04-07T14:06:57.393Z,9.2
2023-04-07T14:16:57.377Z,9.3
2023-04-07T14:26:57.318Z,9.5
2023-04-07T14:36:57.287Z,9.5
2023-04-07T14:46:57.276Z,9.6
2023-04-07T14:56:57.251Z,9.4
2023-04-07T15:06:57.214Z,9.3
2023-04-07T15:16:57.175Z,9.5
2023-04-07T15:26:57.166Z,9.5
2023-04-07T15:36:57.196Z,9.6
2023-04-07T15:46:57.091Z,9.7
2023-04-07T15:56:57.047Z,9.8
2023-04-07T16:06:57.041Z,9.8
2023-04-07T16:16:56.996Z,9.9
2023-04-07T16:26:56.954Z,9.9
2023-04-07T16:36:56.946Z,10
2023-04-07T16:46:56.928Z,9.9
2023-04-07T16:56:56.912Z,9.8
2023-04-07T17:06:56.856Z,9.5
2023-04-07T17:16:56.826Z,9.2
2023-04-07T17:26:56.804Z,9.1
2023-04-07T17:36:56.838Z,9.1
2023-04-07T17:46:56.789Z,9
2023-04-07T17:56:56.708Z,9
2023-04-07T18:06:56.680Z,8.9
2023-04-07T18:16:56.651Z,8.9
2023-04-07T18:26:56.602Z,8.8
2023-04-07T18:36:56.607Z,8.8
2023-04-07T18:46:56.571Z,8.7
2023-04-07T18:56:56.538Z,8.6
2023-04-07T19:06:56.501Z,8.6
2023-04-07T19:16:56.481Z,8.6
2023-04-07T19:26:56.437Z,8.5
2023-04-07T19:36:56.506Z,8.4
2023-04-07T19:46:56.402Z,8.4
2023-04-07T19:56:56.376Z,8.3
2023-04-07T20:06:56.335Z,8.3
2023-04-07T20:16:56.305Z,8.3
2023-04-07T20:26:56.295Z,8.2
2023-04-07T20:36:56.246Z,8.2
2023-04-07T20:46:56.213Z,8.3
2023-04-07T20:56:56.186Z,8.3
2023-04-07T21:06:56.160Z,8.2
2023-04-07T21:16:56.145Z,8.2
2023-04-07T21:26:56.146Z,8.1
2023-04-07T21:36:56.080Z,8.1
2023-04-07T21:46:56.059Z,8.1
2023-04-07T21:56:56.106Z,8
2023-04-07T22:06:55.988Z,8
2023-04-07T22:16:55.957Z,8
2023-04-07T22:26:55.939Z,8
2023-04-07T22:36:55.903Z,8
2023-04-07T22:46:55.906Z,8
2023-04-07T22:56:55.887Z,8
2023-04-07T23:06:55.845Z,8
2023-04-07T23:16:55.805Z,8
2023-04-07T23:26:55.764Z,8
2023-04-07T23:36:55.735Z,8
2023-04-07T23:46:55.713Z,8
2023-04-07T23:56:55.678Z,8
